sensor_id;sensor_type;location;lat;lon;timestamp;pressure;altitude;pressure_sealevel;temperature;humidity
32452;BME280;45528;52.102;5.242;2022-10-30T00:00:53;101275.0;;;21.13;59.27
32452;BME280;45528;52.102;5.242;2022-10-30T00:02:28;101273.0;;;21.12;59.04
32452;BME280;45528;52.102;5.242;2022-10-30T00:05:43;101274.0;;;21.08;59.35
32452;BME280;45528;52.102;5.242;2022-10-30T00:07:21;101275.0;;;21.11;59.14
32452;BME280;45528;52.102;5.242;2022-10-30T00:08:57;101275.0;;;21.02;59.0
32452;BME280;45528;52.102;5.242;2022-10-30T00:12:09;101277.0;;;21.0;59.06
32452;BME280;45528;52.102;5.242;2022-10-30T00:13:45;101275.0;;;20.99;59.16
32452;BME280;45528;52.102;5.242;2022-10-30T00:15:21;101280.0;;;20.99;59.06
32452;BME280;45528;52.102;5.242;2022-10-30T00:16:57;101283.0;;;21.03;58.9
32452;BME280;45528;52.102;5.242;2022-10-30T00:20:11;101276.0;;;20.99;59.18
32452;BME280;45528;52.102;5.242;2022-10-30T00:21:47;101273.0;;;20.91;59.15
32452;BME280;45528;52.102;5.242;2022-10-30T00:23:23;101277.0;;;20.92;59.15
32452;BME280;45528;52.102;5.242;2022-10-30T00:26:35;101276.0;;;20.9;59.3
32452;BME280;45528;52.102;5.242;2022-10-30T00:28:11;101278.0;;;20.89;59.48
32452;BME280;45528;52.102;5.242;2022-10-30T00:29:48;101276.0;;;20.83;59.37
32452;BME280;45528;52.102;5.242;2022-10-30T00:33:00;101282.0;;;20.79;59.48
32452;BME280;45528;52.102;5.242;2022-10-30T00:34:37;101277.0;;;20.78;59.29
32452;BME280;45528;52.102;5.242;2022-10-30T00:36:13;101276.0;;;20.73;59.37
32452;BME280;45528;52.102;5.242;2022-10-30T00:37:49;101282.0;;;20.78;59.37
32452;BME280;45528;52.102;5.242;2022-10-30T00:41:02;101269.0;;;20.78;59.18
32452;BME280;45528;52.102;5.242;2022-10-30T00:42:39;101269.0;;;20.77;59.41
32452;BME280;45528;52.102;5.242;2022-10-30T00:44:32;101268.0;;;20.8;59.51
32452;BME280;45528;52.102;5.242;2022-10-30T00:46:16;101271.0;;;20.77;59.52
32452;BME280;45528;52.102;5.242;2022-10-30T00:49:43;101271.0;;;20.76;59.42
32452;BME280;45528;52.102;5.242;2022-10-30T00:51:29;101275.0;;;20.71;59.64
32452;BME280;45528;52.102;5.242;2022-10-30T00:53:10;101277.0;;;20.7;59.32
32452;BME280;45528;52.102;5.242;2022-10-30T00:54:49;101285.0;;;20.74;59.44
32452;BME280;45528;52.102;5.242;2022-10-30T00:58:09;101281.0;;;20.73;59.57
32452;BME280;45528;52.102;5.242;2022-10-30T00:59:49;101283.0;;;20.75;59.33
32452;BME280;45528;52.102;5.242;2022-10-30T01:01:27;101283.0;;;20.76;59.33
32452;BME280;45528;52.102;5.242;2022-10-30T01:03:07;101276.0;;;20.69;59.49
32452;BME280;45528;52.102;5.242;2022-10-30T01:06:25;101275.0;;;20.62;59.32
32452;BME280;45528;52.102;5.242;2022-10-30T01:08:04;101274.0;;;20.58;59.39
32452;BME280;45528;52.102;5.242;2022-10-30T01:09:40;101270.0;;;20.54;59.71
32452;BME280;45528;52.102;5.242;2022-10-30T01:11:17;101271.0;;;20.53;59.83
32452;BME280;45528;52.102;5.242;2022-10-30T01:14:36;101270.0;;;20.55;59.79
32452;BME280;45528;52.102;5.242;2022-10-30T01:16:29;101278.0;;;20.58;59.56
32452;BME280;45528;52.102;5.242;2022-10-30T01:18:20;101280.0;;;20.57;59.78
32452;BME280;45528;52.102;5.242;2022-10-30T01:20:16;101276.0;;;20.56;59.58
32452;BME280;45528;52.102;5.242;2022-10-30T01:23:24;101278.0;;;20.55;59.43
32452;BME280;45528;52.102;5.242;2022-10-30T01:25:17;101277.0;;;20.55;59.41
32452;BME280;45528;52.102;5.242;2022-10-30T01:27:13;101274.0;;;20.55;59.52
32452;BME280;45528;52.102;5.242;2022-10-30T01:29:10;101276.0;;;20.47;59.4
32452;BME280;45528;52.102;5.242;2022-10-30T01:30:59;101280.0;;;20.46;59.58
32452;BME280;45528;52.102;5.242;2022-10-30T01:32:51;101287.0;;;20.45;59.69
32452;BME280;45528;52.102;5.242;2022-10-30T01:34:39;101289.0;;;20.49;59.82
32452;BME280;45528;52.102;5.242;2022-10-30T01:38:09;101294.0;;;20.51;59.42
32452;BME280;45528;52.102;5.242;2022-10-30T01:39:50;101295.0;;;20.46;59.55
32452;BME280;45528;52.102;5.242;2022-10-30T01:41:27;101293.0;;;20.48;59.56
32452;BME280;45528;52.102;5.242;2022-10-30T01:43:03;101293.0;;;20.45;59.32
32452;BME280;45528;52.102;5.242;2022-10-30T01:46:29;101293.0;;;20.41;59.62
32452;BME280;45528;52.102;5.242;2022-10-30T01:48:48;101295.0;;;20.39;59.55
32452;BME280;45528;52.102;5.242;2022-10-30T01:50:34;101300.0;;;20.41;59.6
32452;BME280;45528;52.102;5.242;2022-10-30T01:52:18;101299.0;;;20.39;59.61
32452;BME280;45528;52.102;5.242;2022-10-30T01:54:03;101297.0;;;20.32;59.5
32452;BME280;45528;52.102;5.242;2022-10-30T01:55:49;101296.0;;;20.28;59.71
32452;BME280;45528;52.102;5.242;2022-10-30T01:57:35;101299.0;;;20.3;59.72
32452;BME280;45528;52.102;5.242;2022-10-30T02:00:58;101301.0;;;20.29;59.75
32452;BME280;45528;52.102;5.242;2022-10-30T02:02:35;101305.0;;;20.27;59.81
32452;BME280;45528;52.102;5.242;2022-10-30T02:04:12;101306.0;;;20.3;59.62
32452;BME280;45528;52.102;5.242;2022-10-30T02:05:51;101301.0;;;20.27;59.56
32452;BME280;45528;52.102;5.242;2022-10-30T02:09:04;101299.0;;;20.27;59.65
32452;BME280;45528;52.102;5.242;2022-10-30T02:10:42;101300.0;;;20.27;59.72
32452;BME280;45528;52.102;5.242;2022-10-30T02:12:21;101292.0;;;20.27;59.54
32452;BME280;45528;52.102;5.242;2022-10-30T02:15:40;101295.0;;;20.23;59.53
32452;BME280;45528;52.102;5.242;2022-10-30T02:17:18;101302.0;;;20.21;59.63
32452;BME280;45528;52.102;5.242;2022-10-30T02:18:55;101300.0;;;20.22;59.71
32452;BME280;45528;52.102;5.242;2022-10-30T02:20:32;101301.0;;;20.2;59.69
32452;BME280;45528;52.102;5.242;2022-10-30T02:23:46;101296.0;;;20.16;59.7
32452;BME280;45528;52.102;5.242;2022-10-30T02:25:23;101298.0;;;20.14;59.86
32452;BME280;45528;52.102;5.242;2022-10-30T02:26:59;101305.0;;;20.05;59.9
32452;BME280;45528;52.102;5.242;2022-10-30T02:30:12;101302.0;;;20.11;59.61
32452;BME280;45528;52.102;5.242;2022-10-30T02:31:49;101300.0;;;20.07;59.69
32452;BME280;45528;52.102;5.242;2022-10-30T02:33:25;101297.0;;;20.04;59.63
32452;BME280;45528;52.102;5.242;2022-10-30T02:35:03;101293.0;;;20.04;59.81
32452;BME280;45528;52.102;5.242;2022-10-30T02:38:18;101300.0;;;20.03;59.94
32452;BME280;45528;52.102;5.242;2022-10-30T02:39:54;101306.0;;;20.02;59.82
32452;BME280;45528;52.102;5.242;2022-10-30T02:41:30;101303.0;;;20.05;59.91
32452;BME280;45528;52.102;5.242;2022-10-30T02:44:42;101301.0;;;20.02;59.79
32452;BME280;45528;52.102;5.242;2022-10-30T02:46:19;101299.0;;;20.02;59.77
32452;BME280;45528;52.102;5.242;2022-10-30T02:47:57;101298.0;;;19.95;59.81
32452;BME280;45528;52.102;5.242;2022-10-30T02:51:11;101296.0;;;19.93;59.96
32452;BME280;45528;52.102;5.242;2022-10-30T02:52:48;101300.0;;;19.88;59.94
32452;BME280;45528;52.102;5.242;2022-10-30T02:54:25;101299.0;;;19.93;59.89
32452;BME280;45528;52.102;5.242;2022-10-30T02:56:03;101297.0;;;19.96;60.09
32452;BME280;45528;52.102;5.242;2022-10-30T02:59:16;101297.0;;;19.93;60.05
32452;BME280;45528;52.102;5.242;2022-10-30T03:00:52;101298.0;;;19.93;60.13
32452;BME280;45528;52.102;5.242;2022-10-30T03:02:29;101299.0;;;19.95;59.95
32452;BME280;45528;52.102;5.242;2022-10-30T03:05:42;101302.0;;;19.89;59.95
32452;BME280;45528;52.102;5.242;2022-10-30T03:07:18;101307.0;;;19.91;59.98
32452;BME280;45528;52.102;5.242;2022-10-30T03:08:54;101305.0;;;19.88;59.92
32452;BME280;45528;52.102;5.242;2022-10-30T03:12:07;101305.0;;;19.86;59.74
32452;BME280;45528;52.102;5.242;2022-10-30T03:13:44;101300.0;;;19.75;60.02
32452;BME280;45528;52.102;5.242;2022-10-30T03:15:22;101300.0;;;19.71;60.18
32452;BME280;45528;52.102;5.242;2022-10-30T03:16:58;101300.0;;;19.73;60.39
32452;BME280;45528;52.102;5.242;2022-10-30T03:20:11;101303.0;;;19.75;60.33
32452;BME280;45528;52.102;5.242;2022-10-30T03:21:48;101301.0;;;19.81;60.05
32452;BME280;45528;52.102;5.242;2022-10-30T03:23:24;101307.0;;;19.78;59.78
32452;BME280;45528;52.102;5.242;2022-10-30T03:26:38;101311.0;;;19.78;59.91
32452;BME280;45528;52.102;5.242;2022-10-30T03:28:16;101309.0;;;19.81;60.04
32452;BME280;45528;52.102;5.242;2022-10-30T03:29:53;101307.0;;;19.77;59.75
32452;BME280;45528;52.102;5.242;2022-10-30T03:31:29;101306.0;;;19.71;59.75
32452;BME280;45528;52.102;5.242;2022-10-30T03:34:42;101313.0;;;19.68;59.87
32452;BME280;45528;52.102;5.242;2022-10-30T03:36:18;101313.0;;;19.7;59.99
32452;BME280;45528;52.102;5.242;2022-10-30T03:37:54;101321.0;;;19.68;59.75
32452;BME280;45528;52.102;5.242;2022-10-30T03:41:07;101321.0;;;19.7;60.01
32452;BME280;45528;52.102;5.242;2022-10-30T03:42:44;101319.0;;;19.66;59.96
32452;BME280;45528;52.102;5.242;2022-10-30T03:44:21;101318.0;;;19.53;60.01
32452;BME280;45528;52.102;5.242;2022-10-30T03:47:34;101315.0;;;19.56;59.91
32452;BME280;45528;52.102;5.242;2022-10-30T03:49:14;101313.0;;;19.54;59.86
32452;BME280;45528;52.102;5.242;2022-10-30T03:50:51;101312.0;;;19.54;59.78
32452;BME280;45528;52.102;5.242;2022-10-30T03:52:27;101316.0;;;19.48;59.78
32452;BME280;45528;52.102;5.242;2022-10-30T03:55:40;101311.0;;;19.46;60.01
32452;BME280;45528;52.102;5.242;2022-10-30T03:57:17;101314.0;;;19.43;60.03
32452;BME280;45528;52.102;5.242;2022-10-30T03:58:53;101311.0;;;19.45;59.98
32452;BME280;45528;52.102;5.242;2022-10-30T04:02:06;101312.0;;;19.45;60.03
32452;BME280;45528;52.102;5.242;2022-10-30T04:03:44;101309.0;;;19.47;59.95
32452;BME280;45528;52.102;5.242;2022-10-30T04:05:21;101305.0;;;19.46;59.98
32452;BME280;45528;52.102;5.242;2022-10-30T04:08:35;101299.0;;;19.45;60.14
32452;BME280;45528;52.102;5.242;2022-10-30T04:10:11;101296.0;;;19.38;60.14
32452;BME280;45528;52.102;5.242;2022-10-30T04:11:49;101298.0;;;19.39;59.96
32452;BME280;45528;52.102;5.242;2022-10-30T04:13:25;101298.0;;;19.38;59.99
32452;BME280;45528;52.102;5.242;2022-10-30T04:16:38;101294.0;;;19.34;59.7
32452;BME280;45528;52.102;5.242;2022-10-30T04:18:16;101295.0;;;19.3;59.95
32452;BME280;45528;52.102;5.242;2022-10-30T04:19:52;101294.0;;;19.28;60.06
32452;BME280;45528;52.102;5.242;2022-10-30T04:23:07;101297.0;;;19.28;60.04
32452;BME280;45528;52.102;5.242;2022-10-30T04:24:48;101303.0;;;19.34;60.46
32452;BME280;45528;52.102;5.242;2022-10-30T04:26:25;101306.0;;;19.41;60.48
32452;BME280;45528;52.102;5.242;2022-10-30T04:28:02;101300.0;;;19.43;60.17
32452;BME280;45528;52.102;5.242;2022-10-30T04:31:17;101303.0;;;19.32;59.94
32452;BME280;45528;52.102;5.242;2022-10-30T04:32:55;101301.0;;;19.28;59.98
32452;BME280;45528;52.102;5.242;2022-10-30T04:34:32;101305.0;;;19.25;59.98
32452;BME280;45528;52.102;5.242;2022-10-30T04:37:51;101305.0;;;19.25;60.25
32452;BME280;45528;52.102;5.242;2022-10-30T04:39:28;101302.0;;;19.27;60.21
32452;BME280;45528;52.102;5.242;2022-10-30T04:41:05;101305.0;;;19.27;60.04
32452;BME280;45528;52.102;5.242;2022-10-30T04:42:41;101305.0;;;19.27;60.04
32452;BME280;45528;52.102;5.242;2022-10-30T04:45:57;101305.0;;;19.25;60.11
32452;BME280;45528;52.102;5.242;2022-10-30T04:47:33;101302.0;;;19.23;59.98
32452;BME280;45528;52.102;5.242;2022-10-30T04:49:10;101309.0;;;19.2;60.05
32452;BME280;45528;52.102;5.242;2022-10-30T04:52:23;101311.0;;;19.21;60.18
32452;BME280;45528;52.102;5.242;2022-10-30T04:53:59;101306.0;;;19.21;60.38
32452;BME280;45528;52.102;5.242;2022-10-30T04:55:35;101309.0;;;19.22;60.08
32452;BME280;45528;52.102;5.242;2022-10-30T04:58:48;101314.0;;;19.22;60.22
32452;BME280;45528;52.102;5.242;2022-10-30T05:00:25;101312.0;;;19.18;60.25
32452;BME280;45528;52.102;5.242;2022-10-30T05:02:02;101309.0;;;19.22;60.12
32452;BME280;45528;52.102;5.242;2022-10-30T05:03:38;101313.0;;;19.18;60.25
32452;BME280;45528;52.102;5.242;2022-10-30T05:06:52;101314.0;;;19.12;59.99
32452;BME280;45528;52.102;5.242;2022-10-30T05:08:28;101315.0;;;19.12;59.87
32452;BME280;45528;52.102;5.242;2022-10-30T05:10:09;101319.0;;;19.12;60.07
32452;BME280;45528;52.102;5.242;2022-10-30T05:13:22;101310.0;;;19.11;59.8
32452;BME280;45528;52.102;5.242;2022-10-30T05:14:59;101307.0;;;19.02;60.04
32452;BME280;45528;52.102;5.242;2022-10-30T05:16:36;101311.0;;;19.0;60.33
32452;BME280;45528;52.102;5.242;2022-10-30T05:18:12;101307.0;;;19.06;60.18
32452;BME280;45528;52.102;5.242;2022-10-30T05:21:25;101313.0;;;18.97;60.1
32452;BME280;45528;52.102;5.242;2022-10-30T05:23:02;101309.0;;;18.93;60.07
32452;BME280;45528;52.102;5.242;2022-10-30T05:24:38;101307.0;;;18.91;60.24
32452;BME280;45528;52.102;5.242;2022-10-30T05:27:56;101301.0;;;18.86;60.28
32452;BME280;45528;52.102;5.242;2022-10-30T05:29:33;101301.0;;;18.84;60.28
32452;BME280;45528;52.102;5.242;2022-10-30T05:31:09;101301.0;;;18.79;60.14
32452;BME280;45528;52.102;5.242;2022-10-30T05:34:22;101302.0;;;18.81;60.32
32452;BME280;45528;52.102;5.242;2022-10-30T05:35:58;101299.0;;;18.77;60.24
32452;BME280;45528;52.102;5.242;2022-10-30T05:37:34;101294.0;;;18.73;60.37
32452;BME280;45528;52.102;5.242;2022-10-30T05:39:10;101287.0;;;18.71;60.34
32452;BME280;45528;52.102;5.242;2022-10-30T05:42:23;101286.0;;;18.71;60.29
32452;BME280;45528;52.102;5.242;2022-10-30T05:44:00;101284.0;;;18.7;60.34
32452;BME280;45528;52.102;5.242;2022-10-30T05:45:37;101284.0;;;18.73;60.54
32452;BME280;45528;52.102;5.242;2022-10-30T05:48:49;101286.0;;;18.82;60.81
32452;BME280;45528;52.102;5.242;2022-10-30T05:50:26;101289.0;;;18.86;60.67
32452;BME280;45528;52.102;5.242;2022-10-30T05:52:03;101280.0;;;18.89;60.5
32452;BME280;45528;52.102;5.242;2022-10-30T05:55:16;101281.0;;;18.86;60.46
32452;BME280;45528;52.102;5.242;2022-10-30T05:56:52;101280.0;;;18.79;60.52
32452;BME280;45528;52.102;5.242;2022-10-30T05:58:28;101274.0;;;18.79;60.4
32452;BME280;45528;52.102;5.242;2022-10-30T06:00:06;101278.0;;;18.84;60.41
32452;BME280;45528;52.102;5.242;2022-10-30T06:03:20;101281.0;;;18.91;60.7
32452;BME280;45528;52.102;5.242;2022-10-30T06:04:57;101290.0;;;18.95;60.8
32452;BME280;45528;52.102;5.242;2022-10-30T06:06:33;101289.0;;;18.96;60.6
32452;BME280;45528;52.102;5.242;2022-10-30T06:09:46;101294.0;;;18.98;60.38
32452;BME280;45528;52.102;5.242;2022-10-30T06:11:22;101298.0;;;19.0;60.37
32452;BME280;45528;52.102;5.242;2022-10-30T06:13:00;101300.0;;;19.0;60.45
32452;BME280;45528;52.102;5.242;2022-10-30T06:16:14;101305.0;;;19.04;60.56
32452;BME280;45528;52.102;5.242;2022-10-30T06:17:50;101305.0;;;19.03;60.41
32452;BME280;45528;52.102;5.242;2022-10-30T06:19:27;101305.0;;;19.04;60.31
32452;BME280;45528;52.102;5.242;2022-10-30T06:21:03;101305.0;;;19.04;60.06
32452;BME280;45528;52.102;5.242;2022-10-30T06:24:17;101309.0;;;18.95;59.98
32452;BME280;45528;52.102;5.242;2022-10-30T06:25:54;101305.0;;;18.88;60.1
32452;BME280;45528;52.102;5.242;2022-10-30T06:27:33;101302.0;;;18.82;60.11
32452;BME280;45528;52.102;5.242;2022-10-30T06:30:46;101306.0;;;18.81;60.15
32452;BME280;45528;52.102;5.242;2022-10-30T06:32:22;101306.0;;;18.81;60.22
32452;BME280;45528;52.102;5.242;2022-10-30T06:33:59;101307.0;;;18.82;60.18
32452;BME280;45528;52.102;5.242;2022-10-30T06:35:36;101311.0;;;18.8;60.25
32452;BME280;45528;52.102;5.242;2022-10-30T06:38:48;101309.0;;;18.77;60.24
32452;BME280;45528;52.102;5.242;2022-10-30T06:40:24;101307.0;;;18.78;60.35
32452;BME280;45528;52.102;5.242;2022-10-30T06:42:01;101313.0;;;18.75;60.31
32452;BME280;45528;52.102;5.242;2022-10-30T06:45:16;101315.0;;;18.77;60.44
32452;BME280;45528;52.102;5.242;2022-10-30T06:46:53;101319.0;;;18.77;60.29
32452;BME280;45528;52.102;5.242;2022-10-30T06:48:29;101317.0;;;18.79;60.18
32452;BME280;45528;52.102;5.242;2022-10-30T06:51:45;101319.0;;;18.71;60.3
32452;BME280;45528;52.102;5.242;2022-10-30T06:53:23;101322.0;;;18.71;60.38
32452;BME280;45528;52.102;5.242;2022-10-30T06:55:00;101323.0;;;18.71;60.52
32452;BME280;45528;52.102;5.242;2022-10-30T06:56:37;101324.0;;;18.68;60.45
32452;BME280;45528;52.102;5.242;2022-10-30T06:59:49;101323.0;;;18.7;60.52
32452;BME280;45528;52.102;5.242;2022-10-30T07:01:25;101321.0;;;18.71;60.56
32452;BME280;45528;52.102;5.242;2022-10-30T07:03:03;101319.0;;;18.71;60.57
32452;BME280;45528;52.102;5.242;2022-10-30T07:06:16;101317.0;;;18.7;60.57
32452;BME280;45528;52.102;5.242;2022-10-30T07:07:55;101312.0;;;18.68;60.66
32452;BME280;45528;52.102;5.242;2022-10-30T07:09:31;101312.0;;;18.66;60.69
32452;BME280;45528;52.102;5.242;2022-10-30T07:12:52;101313.0;;;18.66;60.74
32452;BME280;45528;52.102;5.242;2022-10-30T07:14:30;101313.0;;;18.73;60.89
32452;BME280;45528;52.102;5.242;2022-10-30T07:16:06;101319.0;;;18.84;60.65
32452;BME280;45528;52.102;5.242;2022-10-30T07:17:50;101318.0;;;18.87;60.7
32452;BME280;45528;52.102;5.242;2022-10-30T07:21:04;101323.0;;;18.97;60.45
32452;BME280;45528;52.102;5.242;2022-10-30T07:22:40;101324.0;;;19.02;60.43
32452;BME280;45528;52.102;5.242;2022-10-30T07:24:17;101319.0;;;19.04;60.54
32452;BME280;45528;52.102;5.242;2022-10-30T07:25:54;101312.0;;;19.07;60.49
32452;BME280;45528;52.102;5.242;2022-10-30T07:29:07;101311.0;;;19.14;60.46
32452;BME280;45528;52.102;5.242;2022-10-30T07:30:43;101305.0;;;19.16;60.44
32452;BME280;45528;52.102;5.242;2022-10-30T07:32:20;101308.0;;;19.22;60.59
32452;BME280;45528;52.102;5.242;2022-10-30T07:35:34;101312.0;;;19.28;60.31
32452;BME280;45528;52.102;5.242;2022-10-30T07:37:11;101311.0;;;19.37;60.32
32452;BME280;45528;52.102;5.242;2022-10-30T07:38:49;101312.0;;;19.45;60.2
32452;BME280;45528;52.102;5.242;2022-10-30T07:42:01;101305.0;;;19.54;60.19
32452;BME280;45528;52.102;5.242;2022-10-30T07:43:38;101298.0;;;19.63;60.12
32452;BME280;45528;52.102;5.242;2022-10-30T07:45:16;101301.0;;;19.68;60.21
32452;BME280;45528;52.102;5.242;2022-10-30T07:46:52;101302.0;;;19.77;60.17
32452;BME280;45528;52.102;5.242;2022-10-30T07:50:05;101302.0;;;19.86;60.16
32452;BME280;45528;52.102;5.242;2022-10-30T07:51:41;101301.0;;;19.95;60.07
32452;BME280;45528;52.102;5.242;2022-10-30T07:53:18;101298.0;;;20.02;60.02
32452;BME280;45528;52.102;5.242;2022-10-30T07:56:30;101301.0;;;20.12;59.92
32452;BME280;45528;52.102;5.242;2022-10-30T07:58:07;101301.0;;;20.25;59.91
32452;BME280;45528;52.102;5.242;2022-10-30T07:59:43;101307.0;;;20.38;59.7
32452;BME280;45528;52.102;5.242;2022-10-30T08:02:57;101305.0;;;20.46;59.75
32452;BME280;45528;52.102;5.242;2022-10-30T08:04:34;101306.0;;;20.6;59.67
32452;BME280;45528;52.102;5.242;2022-10-30T08:06:10;101305.0;;;20.7;59.58
32452;BME280;45528;52.102;5.242;2022-10-30T08:07:47;101313.0;;;20.88;59.5
32452;BME280;45528;52.102;5.242;2022-10-30T08:10:59;101310.0;;;21.07;59.06
32452;BME280;45528;52.102;5.242;2022-10-30T08:12:38;101308.0;;;21.19;58.84
32452;BME280;45528;52.102;5.242;2022-10-30T08:14:15;101307.0;;;21.33;58.45
32452;BME280;45528;52.102;5.242;2022-10-30T08:17:27;101306.0;;;21.43;58.23
32452;BME280;45528;52.102;5.242;2022-10-30T08:19:03;101306.0;;;21.55;58.17
32452;BME280;45528;52.102;5.242;2022-10-30T08:20:40;101303.0;;;21.71;58.19
32452;BME280;45528;52.102;5.242;2022-10-30T08:22:17;101307.0;;;21.83;58.12
32452;BME280;45528;52.102;5.242;2022-10-30T08:25:30;101311.0;;;21.98;57.75
32452;BME280;45528;52.102;5.242;2022-10-30T08:27:06;101309.0;;;21.99;57.88
32452;BME280;45528;52.102;5.242;2022-10-30T08:28:43;101309.0;;;22.23;57.69
32452;BME280;45528;52.102;5.242;2022-10-30T08:31:57;101305.0;;;22.27;57.33
32452;BME280;45528;52.102;5.242;2022-10-30T08:33:33;101312.0;;;22.49;56.85
32452;BME280;45528;52.102;5.242;2022-10-30T08:35:10;101312.0;;;22.7;56.31
32452;BME280;45528;52.102;5.242;2022-10-30T08:38:27;101311.0;;;22.73;55.66
32452;BME280;45528;52.102;5.242;2022-10-30T08:40:05;101309.0;;;22.76;55.54
32452;BME280;45528;52.102;5.242;2022-10-30T08:41:42;101309.0;;;22.87;55.43
32452;BME280;45528;52.102;5.242;2022-10-30T08:43:18;101307.0;;;22.97;55.05
32452;BME280;45528;52.102;5.242;2022-10-30T08:46:31;101309.0;;;23.08;55.15
32452;BME280;45528;52.102;5.242;2022-10-30T08:48:09;101310.0;;;23.08;54.92
32452;BME280;45528;52.102;5.242;2022-10-30T08:49:46;101315.0;;;23.17;54.89
32452;BME280;45528;52.102;5.242;2022-10-30T08:53:00;101315.0;;;23.26;54.77
32452;BME280;45528;52.102;5.242;2022-10-30T08:54:38;101319.0;;;23.25;54.63
32452;BME280;45528;52.102;5.242;2022-10-30T08:56:14;101321.0;;;23.37;54.66
32452;BME280;45528;52.102;5.242;2022-10-30T08:57:51;101314.0;;;23.29;54.23
32452;BME280;45528;52.102;5.242;2022-10-30T09:01:04;101320.0;;;23.44;54.44
32452;BME280;45528;52.102;5.242;2022-10-30T09:02:41;101320.0;;;23.57;54.29
32452;BME280;45528;52.102;5.242;2022-10-30T09:04:17;101323.0;;;23.59;54.2
32452;BME280;45528;52.102;5.242;2022-10-30T09:07:30;101320.0;;;23.62;53.99
32452;BME280;45528;52.102;5.242;2022-10-30T09:09:06;101309.0;;;23.72;53.77
32452;BME280;45528;52.102;5.242;2022-10-30T09:10:42;101303.0;;;23.85;53.56
32452;BME280;45528;52.102;5.242;2022-10-30T09:13:56;101299.0;;;23.95;53.37
32452;BME280;45528;52.102;5.242;2022-10-30T09:15:32;101308.0;;;24.05;53.16
32452;BME280;45528;52.102;5.242;2022-10-30T09:17:08;101303.0;;;24.14;52.94
32452;BME280;45528;52.102;5.242;2022-10-30T09:20:22;101297.0;;;24.24;53.04
32452;BME280;45528;52.102;5.242;2022-10-30T09:21:59;101302.0;;;24.22;52.63
32452;BME280;45528;52.102;5.242;2022-10-30T09:23:35;101306.0;;;24.23;52.68
32452;BME280;45528;52.102;5.242;2022-10-30T09:25:11;101306.0;;;24.29;52.08
32452;BME280;45528;52.102;5.242;2022-10-30T09:28:24;101311.0;;;24.41;52.47
32452;BME280;45528;52.102;5.242;2022-10-30T09:30:01;101316.0;;;24.46;52.15
32452;BME280;45528;52.102;5.242;2022-10-30T09:31:37;101316.0;;;24.52;51.8
32452;BME280;45528;52.102;5.242;2022-10-30T09:34:50;101323.0;;;24.66;51.79
32452;BME280;45528;52.102;5.242;2022-10-30T09:36:26;101327.0;;;24.73;51.6
32452;BME280;45528;52.102;5.242;2022-10-30T09:38:02;101330.0;;;24.8;51.81
32452;BME280;45528;52.102;5.242;2022-10-30T09:41:28;101325.0;;;24.85;51.58
32452;BME280;45528;52.102;5.242;2022-10-30T09:43:24;101328.0;;;24.92;51.61
32452;BME280;45528;52.102;5.242;2022-10-30T09:45:31;101330.0;;;25.0;51.34
32452;BME280;45528;52.102;5.242;2022-10-30T09:48:10;101335.0;;;25.11;51.04
32452;BME280;45528;52.102;5.242;2022-10-30T09:50:21;101337.0;;;25.22;50.48
32452;BME280;45528;52.102;5.242;2022-10-30T09:54:05;101337.0;;;25.24;50.35
32452;BME280;45528;52.102;5.242;2022-10-30T09:55:50;101340.0;;;25.25;50.45
32452;BME280;45528;52.102;5.242;2022-10-30T09:57:40;101332.0;;;25.16;50.79
32452;BME280;45528;52.102;5.242;2022-10-30T09:59:27;101335.0;;;25.07;50.93
32452;BME280;45528;52.102;5.242;2022-10-30T10:01:16;101334.0;;;25.04;50.82
32452;BME280;45528;52.102;5.242;2022-10-30T10:03:08;101336.0;;;25.08;50.75
32452;BME280;45528;52.102;5.242;2022-10-30T10:04:57;101331.0;;;25.2;50.64
32452;BME280;45528;52.102;5.242;2022-10-30T10:08:22;101327.0;;;25.27;50.66
32452;BME280;45528;52.102;5.242;2022-10-30T10:10:05;101324.0;;;25.44;50.05
32452;BME280;45528;52.102;5.242;2022-10-30T10:11:48;101326.0;;;25.45;50.75
32452;BME280;45528;52.102;5.242;2022-10-30T10:13:32;101327.0;;;25.56;50.45
32452;BME280;45528;52.102;5.242;2022-10-30T10:17:13;101330.0;;;25.62;50.03
32452;BME280;45528;52.102;5.242;2022-10-30T10:18:56;101330.0;;;25.66;49.86
32452;BME280;45528;52.102;5.242;2022-10-30T10:20:45;101330.0;;;25.77;49.91
32452;BME280;45528;52.102;5.242;2022-10-30T10:22:25;101330.0;;;25.77;49.9
32452;BME280;45528;52.102;5.242;2022-10-30T10:24:13;101332.0;;;25.85;49.87
32452;BME280;45528;52.102;5.242;2022-10-30T10:25:56;101333.0;;;25.83;49.77
32452;BME280;45528;52.102;5.242;2022-10-30T10:29:34;101331.0;;;25.81;49.86
32452;BME280;45528;52.102;5.242;2022-10-30T10:31:30;101326.0;;;25.91;49.64
32452;BME280;45528;52.102;5.242;2022-10-30T10:33:41;101332.0;;;26.02;49.68
32452;BME280;45528;52.102;5.242;2022-10-30T10:35:36;101327.0;;;25.94;49.44
32452;BME280;45528;52.102;5.242;2022-10-30T10:38:19;101327.0;;;25.99;49.13
32452;BME280;45528;52.102;5.242;2022-10-30T10:40:14;101330.0;;;26.11;49.3
32452;BME280;45528;52.102;5.242;2022-10-30T10:42:03;101327.0;;;26.16;48.99
32452;BME280;45528;52.102;5.242;2022-10-30T10:43:57;101332.0;;;26.28;49.19
32452;BME280;45528;52.102;5.242;2022-10-30T10:45:47;101333.0;;;26.23;48.74
32452;BME280;45528;52.102;5.242;2022-10-30T10:47:45;101336.0;;;26.23;48.79
32452;BME280;45528;52.102;5.242;2022-10-30T10:49:37;101337.0;;;26.35;48.88
32452;BME280;45528;52.102;5.242;2022-10-30T10:51:25;101334.0;;;26.37;48.85
32452;BME280;45528;52.102;5.242;2022-10-30T10:53:06;101331.0;;;26.32;48.28
32452;BME280;45528;52.102;5.242;2022-10-30T10:56:34;101324.0;;;26.42;48.34
32452;BME280;45528;52.102;5.242;2022-10-30T10:58:25;101330.0;;;26.39;48.03
32452;BME280;45528;52.102;5.242;2022-10-30T11:00:14;101330.0;;;26.46;47.71
32452;BME280;45528;52.102;5.242;2022-10-30T11:01:57;101328.0;;;26.49;47.55
32452;BME280;45528;52.102;5.242;2022-10-30T11:03:44;101326.0;;;26.51;47.99
32452;BME280;45528;52.102;5.242;2022-10-30T11:07:16;101326.0;;;26.48;48.53
32452;BME280;45528;52.102;5.242;2022-10-30T11:09:04;101320.0;;;26.53;48.45